Time;durP1;ratioP1;P1;durP2;ratioP2;P2;SDS_P1;SDS_P2;PMS_P1;PMS_P2;Temp;Humidity;BMP_temperature;BMP_pressure;BME280_temperature;BME280_humidity;BME280_pressure;Samples;Min_cycle;Max_cycle;Signal;HPM_P1;HPM_P2
2023/09/06 00:01:40;;;;;;;4.60;3.30;;;;;;;;;;4972510;28;20180;-72
2023/09/06 00:04:05;;;;;;;5.93;4.00;;;;;;;;;;4957129;28;20201;-74
2023/09/06 00:06:31;;;;;;;3.83;3.43;;;;;;;;;;4972125;28;20192;-74
2023/09/06 00:08:56;;;;;;;5.30;3.47;;;;;;;;;;4954550;28;20197;-73
2023/09/06 00:11:21;;;;;;;5.23;3.90;;;;;;;;;;4955662;28;20178;-73
2023/09/06 00:13:46;;;;;;;4.00;3.60;;;;;;;;;;4972796;28;20187;-73
2023/09/06 00:16:12;;;;;;;3.87;3.47;;;;;;;;;;4956461;28;20211;-73
2023/09/06 00:18:37;;;;;;;4.73;3.67;;;;;;;;;;4953955;28;20216;-72
2023/09/06 00:21:05;;;;;;;4.07;3.60;;;;;;;;;;4970133;28;20180;-73
2023/09/06 00:23:31;;;;;;;4.47;4.03;;;;;;;;;;4970341;28;20196;-72
2023/09/06 00:25:56;;;;;;;3.83;3.50;;;;;;;;;;4955388;28;20179;-73
2023/09/06 00:28:23;;;;;;;4.50;4.07;;;;;;;;;;4968771;28;20181;-72
2023/09/06 00:30:49;;;;;;;4.67;3.30;;;;;;;;;;4971025;28;20177;-72
2023/09/06 00:33:14;;;;;;;4.57;3.90;;;;;;;;;;4952889;28;20189;-72
2023/09/06 00:35:40;;;;;;;4.30;3.90;;;;;;;;;;4949373;28;20248;-72
2023/09/06 00:38:05;;;;;;;4.10;3.70;;;;;;;;;;4955833;28;20207;-73
2023/09/06 00:40:30;;;;;;;6.47;4.37;;;;;;;;;;4976886;28;20196;-72
2023/09/06 00:42:59;;;;;;;6.23;3.83;;;;;;;;;;4955242;28;20175;-73
2023/09/06 00:45:26;;;;;;;4.10;3.73;;;;;;;;;;4972664;28;20186;-73
2023/09/06 00:47:52;;;;;;;3.83;3.53;;;;;;;;;;4970425;28;20233;-72
2023/09/06 00:50:18;;;;;;;3.97;3.57;;;;;;;;;;4976341;28;20186;-72
2023/09/06 00:52:43;;;;;;;5.60;3.77;;;;;;;;;;4972159;28;20181;-73
2023/09/06 00:55:10;;;;;;;4.23;3.70;;;;;;;;;;4954639;28;20277;-73
2023/09/06 00:57:35;;;;;;;5.20;4.03;;;;;;;;;;4954299;28;20177;-72
2023/09/06 01:00:04;;;;;;;4.00;3.47;;;;;;;;;;4953965;28;20177;-73
2023/09/06 01:02:29;;;;;;;6.07;3.70;;;;;;;;;;4956083;28;20188;-72
2023/09/06 01:04:54;;;;;;;5.27;3.50;;;;;;;;;;4954413;28;20188;-72
2023/09/06 01:07:20;;;;;;;4.83;3.93;;;;;;;;;;4970607;28;20212;-73
2023/09/06 01:09:46;;;;;;;4.27;3.87;;;;;;;;;;4969921;28;20259;-73
2023/09/06 01:12:15;;;;;;;4.53;3.80;;;;;;;;;;4952951;28;21082;-73
2023/09/06 01:14:40;;;;;;;4.67;3.90;;;;;;;;;;4954883;28;20215;-72
2023/09/06 01:17:06;;;;;;;3.90;3.53;;;;;;;;;;4955807;28;20168;-73
2023/09/06 01:19:32;;;;;;;5.73;4.00;;;;;;;;;;4971252;28;20171;-73
2023/09/06 01:22:06;;;;;;;4.00;3.60;;;;;;;;;;4969647;28;20181;-73
2023/09/06 01:24:31;;;;;;;4.00;3.60;;;;;;;;;;4952945;28;20180;-73
2023/09/06 01:26:57;;;;;;;4.50;3.97;;;;;;;;;;4972698;28;20181;-73
2023/09/06 01:29:22;;;;;;;7.20;4.27;;;;;;;;;;4969450;28;20267;-73
2023/09/06 01:31:47;;;;;;;4.50;4.10;;;;;;;;;;4970170;28;20276;-73
2023/09/06 01:34:13;;;;;;;4.03;3.50;;;;;;;;;;4954165;28;20236;-73
2023/09/06 01:36:38;;;;;;;4.80;3.73;;;;;;;;;;4971707;28;20203;-72
2023/09/06 01:39:06;;;;;;;4.00;3.60;;;;;;;;;;4955271;28;20176;-73
2023/09/06 01:41:31;;;;;;;4.20;3.77;;;;;;;;;;4971484;28;20232;-72
2023/09/06 01:43:56;;;;;;;5.13;3.60;;;;;;;;;;4952099;28;20215;-72
2023/09/06 01:46:23;;;;;;;8.07;3.90;;;;;;;;;;4954955;28;20187;-73
2023/09/06 01:48:48;;;;;;;3.87;3.30;;;;;;;;;;4953594;28;20220;-73
2023/09/06 01:51:15;;;;;;;4.40;3.90;;;;;;;;;;4953008;28;20208;-72
2023/09/06 01:53:41;;;;;;;4.67;3.47;;;;;;;;;;4952213;28;20196;-73
2023/09/06 01:56:07;;;;;;;8.27;3.57;;;;;;;;;;4971790;28;20208;-73
2023/09/06 01:58:33;;;;;;;7.50;4.07;;;;;;;;;;4974460;28;20220;-72
2023/09/06 02:00:58;;;;;;;6.00;4.20;;;;;;;;;;4969038;28;20197;-73
2023/09/06 02:03:25;;;;;;;4.10;3.77;;;;;;;;;;4969483;28;20181;-72
2023/09/06 02:05:50;;;;;;;5.93;4.17;;;;;;;;;;4971239;28;20187;-73
2023/09/06 02:08:16;;;;;;;4.57;3.70;;;;;;;;;;4954380;28;20206;-72
2023/09/06 02:10:41;;;;;;;8.37;4.10;;;;;;;;;;4968777;28;20239;-73
2023/09/06 02:13:07;;;;;;;4.60;4.10;;;;;;;;;;4968654;28;20188;-73
2023/09/06 02:15:32;;;;;;;4.87;4.37;;;;;;;;;;4970229;28;20202;-72
2023/09/06 02:17:59;;;;;;;3.77;3.47;;;;;;;;;;4968212;28;20284;-73
2023/09/06 02:20:25;;;;;;;4.97;4.53;;;;;;;;;;4967518;28;20271;-73
2023/09/06 02:22:51;;;;;;;4.93;4.30;;;;;;;;;;4964188;28;20185;-73
2023/09/06 02:25:17;;;;;;;5.00;4.13;;;;;;;;;;4954145;28;20184;-72
2023/09/06 02:27:42;;;;;;;4.57;4.17;;;;;;;;;;4965435;28;20194;-73
2023/09/06 02:30:08;;;;;;;3.73;3.43;;;;;;;;;;4954530;28;20268;-72
2023/09/06 02:32:34;;;;;;;4.83;4.40;;;;;;;;;;4970152;28;20203;-72
2023/09/06 02:34:59;;;;;;;4.80;4.20;;;;;;;;;;4966658;28;20219;-73
2023/09/06 02:37:24;;;;;;;4.80;3.90;;;;;;;;;;4953279;28;20172;-73
2023/09/06 02:39:53;;;;;;;5.77;4.10;;;;;;;;;;4952075;28;20213;-72
2023/09/06 02:42:18;;;;;;;4.47;4.03;;;;;;;;;;4952867;28;20195;-73
2023/09/06 02:44:44;;;;;;;4.03;3.63;;;;;;;;;;4959987;28;20193;-73
2023/09/06 02:47:11;;;;;;;4.93;4.27;;;;;;;;;;4952896;28;20192;-73
2023/09/06 02:49:41;;;;;;;6.20;3.97;;;;;;;;;;4968266;28;20169;-72
2023/09/06 02:52:10;;;;;;;4.07;3.67;;;;;;;;;;4970691;28;20239;-73
2023/09/06 02:54:36;;;;;;;4.93;4.20;;;;;;;;;;4947436;28;20343;-72
2023/09/06 02:57:01;;;;;;;5.10;3.97;;;;;;;;;;4946844;28;20229;-73
2023/09/06 02:59:28;;;;;;;5.47;4.47;;;;;;;;;;4970088;28;20176;-73
2023/09/06 03:01:53;;;;;;;5.23;4.33;;;;;;;;;;4974879;28;20230;-72
2023/09/06 03:04:18;;;;;;;4.97;4.43;;;;;;;;;;4973907;28;20195;-73
2023/09/06 03:06:43;;;;;;;4.03;3.63;;;;;;;;;;4957029;28;20186;-72
2023/09/06 03:09:12;;;;;;;5.73;3.83;;;;;;;;;;4952712;28;20210;-73
2023/09/06 03:11:37;;;;;;;4.70;3.70;;;;;;;;;;4954149;28;20187;-72
2023/09/06 03:14:03;;;;;;;4.90;3.87;;;;;;;;;;4954480;28;20191;-73
2023/09/06 03:16:35;;;;;;;6.63;3.80;;;;;;;;;;4972783;28;20234;-73
2023/09/06 03:19:00;;;;;;;4.63;3.90;;;;;;;;;;4975167;28;20246;-73
2023/09/06 03:21:25;;;;;;;5.53;4.30;;;;;;;;;;4955554;28;20232;-72
2023/09/06 03:23:52;;;;;;;4.20;3.80;;;;;;;;;;4955314;28;20191;-73
2023/09/06 03:26:18;;;;;;;4.43;4.00;;;;;;;;;;4957501;28;20235;-72
2023/09/06 03:28:43;;;;;;;5.27;4.03;;;;;;;;;;4956650;28;20183;-72
2023/09/06 03:31:09;;;;;;;4.30;3.90;;;;;;;;;;4955675;28;20189;-73
2023/09/06 03:33:35;;;;;;;5.00;4.37;;;;;;;;;;4972335;28;20214;-72
2023/09/06 03:36:00;;;;;;;4.50;4.00;;;;;;;;;;4968650;28;20188;-72
2023/09/06 03:38:26;;;;;;;5.03;4.50;;;;;;;;;;4956597;28;20175;-73
2023/09/06 03:40:51;;;;;;;5.70;4.10;;;;;;;;;;4972114;28;20207;-73
2023/09/06 03:43:19;;;;;;;4.50;4.10;;;;;;;;;;4972953;28;20169;-73
2023/09/06 03:45:45;;;;;;;5.57;4.47;;;;;;;;;;4955503;28;20235;-73
2023/09/06 03:48:11;;;;;;;4.10;3.70;;;;;;;;;;4957522;28;20178;-72
2023/09/06 03:50:36;;;;;;;7.43;4.10;;;;;;;;;;4954449;28;20183;-72
2023/09/06 03:53:04;;;;;;;5.20;3.90;;;;;;;;;;4969896;28;20171;-73
2023/09/06 03:55:29;;;;;;;9.37;5.17;;;;;;;;;;4972838;28;20231;-73
2023/09/06 03:57:54;;;;;;;5.90;4.13;;;;;;;;;;4974414;28;20232;-73
2023/09/06 04:00:31;;;;;;;4.43;4.03;;;;;;;;;;4954349;28;20188;-73
2023/09/06 04:02:57;;;;;;;5.27;4.13;;;;;;;;;;4954945;28;20175;-73
2023/09/06 04:05:26;;;;;;;4.40;4.00;;;;;;;;;;4956609;28;21049;-72
2023/09/06 04:07:53;;;;;;;5.03;4.53;;;;;;;;;;4973076;28;20190;-73
2023/09/06 04:10:21;;;;;;;4.47;3.80;;;;;;;;;;4950940;28;20242;-73
2023/09/06 04:12:47;;;;;;;4.73;4.33;;;;;;;;;;4955746;28;20233;-73
2023/09/06 04:15:15;;;;;;;10.80;5.20;;;;;;;;;;4947141;28;20212;-73
2023/09/06 04:17:40;;;;;;;4.60;4.20;;;;;;;;;;4948470;28;20185;-72
2023/09/06 04:20:19;;;;;;;5.73;4.10;;;;;;;;;;4953126;28;20225;-73
2023/09/06 04:22:45;;;;;;;4.77;4.37;;;;;;;;;;4948934;28;20186;-72
2023/09/06 04:25:11;;;;;;;5.57;4.77;;;;;;;;;;4951629;28;20184;-72
2023/09/06 04:27:36;;;;;;;14.57;11.83;;;;;;;;;;4947988;28;20187;-72
2023/09/06 04:30:03;;;;;;;8.60;7.67;;;;;;;;;;4950276;28;20276;-73
2023/09/06 04:32:28;;;;;;;5.47;4.93;;;;;;;;;;4943393;28;20287;-72
2023/09/06 04:34:53;;;;;;;6.93;6.33;;;;;;;;;;4937598;28;20206;-73
2023/09/06 04:37:18;;;;;;;5.50;5.00;;;;;;;;;;4952137;28;20187;-72
2023/09/06 04:39:43;;;;;;;5.37;4.80;;;;;;;;;;4949660;28;20175;-72
2023/09/06 04:42:11;;;;;;;6.47;5.77;;;;;;;;;;4951437;28;20207;-73
2023/09/06 04:44:36;;;;;;;5.53;4.80;;;;;;;;;;4946643;28;20402;-72
2023/09/06 04:47:02;;;;;;;6.53;5.27;;;;;;;;;;4950138;28;20184;-72
2023/09/06 04:49:27;;;;;;;10.43;5.30;;;;;;;;;;4952162;28;20181;-72
2023/09/06 04:51:52;;;;;;;5.80;4.87;;;;;;;;;;4948647;28;20194;-73
2023/09/06 04:54:17;;;;;;;4.87;4.40;;;;;;;;;;4948279;28;20237;-73
2023/09/06 04:56:43;;;;;;;6.53;4.57;;;;;;;;;;4950446;28;20188;-73
2023/09/06 04:59:08;;;;;;;4.20;3.70;;;;;;;;;;4952938;28;20188;-77
2023/09/06 05:01:34;;;;;;;4.77;4.27;;;;;;;;;;4944084;28;20196;-76
2023/09/06 05:04:00;;;;;;;4.70;4.30;;;;;;;;;;4949541;28;20179;-75
2023/09/06 05:06:25;;;;;;;5.27;4.73;;;;;;;;;;4953655;28;20222;-76
2023/09/06 05:08:50;;;;;;;5.47;4.70;;;;;;;;;;4951842;28;20187;-76
2023/09/06 05:11:15;;;;;;;4.57;4.13;;;;;;;;;;4951831;28;20232;-76
2023/09/06 05:13:41;;;;;;;4.70;3.90;;;;;;;;;;4949103;28;20179;-76
2023/09/06 05:16:08;;;;;;;7.10;4.30;;;;;;;;;;4952055;28;20240;-76
2023/09/06 05:18:33;;;;;;;5.27;4.60;;;;;;;;;;4949384;28;20185;-76
2023/09/06 05:21:01;;;;;;;5.60;4.67;;;;;;;;;;4957894;28;20183;-76
2023/09/06 05:23:28;;;;;;;4.90;4.40;;;;;;;;;;4956218;28;20181;-75
2023/09/06 05:25:53;;;;;;;4.83;4.33;;;;;;;;;;4952809;28;20210;-76
2023/09/06 05:28:18;;;;;;;4.73;4.23;;;;;;;;;;4960322;28;20224;-77
2023/09/06 05:30:44;;;;;;;4.43;3.80;;;;;;;;;;4947242;28;20271;-76
2023/09/06 05:33:10;;;;;;;7.03;4.80;;;;;;;;;;4954415;28;20184;-76
2023/09/06 05:35:36;;;;;;;4.93;4.43;;;;;;;;;;4949576;28;20203;-76
2023/09/06 05:38:04;;;;;;;5.80;4.37;;;;;;;;;;4951962;28;20210;-76
2023/09/06 05:40:32;;;;;;;4.60;4.20;;;;;;;;;;4944908;28;20267;-76
2023/09/06 05:42:57;;;;;;;5.03;4.50;;;;;;;;;;4952189;28;20221;-76
2023/09/06 05:45:23;;;;;;;4.53;4.13;;;;;;;;;;4945842;28;20182;-76
2023/09/06 05:47:49;;;;;;;5.37;4.33;;;;;;;;;;4945767;28;20182;-76
2023/09/06 05:50:14;;;;;;;5.43;4.30;;;;;;;;;;4949095;28;20183;-76
2023/09/06 05:52:39;;;;;;;6.17;5.57;;;;;;;;;;4950881;28;20184;-75
2023/09/06 05:55:04;;;;;;;4.77;3.90;;;;;;;;;;4945274;28;20253;-76
2023/09/06 05:57:31;;;;;;;5.40;4.63;;;;;;;;;;4948877;28;20192;-76
2023/09/06 05:59:56;;;;;;;7.20;4.23;;;;;;;;;;4945932;28;20258;-76
2023/09/06 06:02:21;;;;;;;5.37;4.30;;;;;;;;;;4961944;28;20190;-76
2023/09/06 06:04:46;;;;;;;5.23;4.47;;;;;;;;;;4951612;28;20261;-76
2023/09/06 06:07:13;;;;;;;5.17;4.67;;;;;;;;;;4947775;28;20190;-76
2023/09/06 06:09:38;;;;;;;8.43;5.13;;;;;;;;;;4958823;28;20287;-76
2023/09/06 06:12:03;;;;;;;5.13;4.50;;;;;;;;;;4956248;28;20204;-76
2023/09/06 06:14:29;;;;;;;5.67;3.90;;;;;;;;;;4949893;28;20200;-76
2023/09/06 06:16:55;;;;;;;5.00;4.50;;;;;;;;;;4951174;28;20181;-76
2023/09/06 06:19:20;;;;;;;12.13;4.57;;;;;;;;;;4966375;28;20179;-76
2023/09/06 06:21:45;;;;;;;6.57;4.17;;;;;;;;;;4967467;28;20182;-76
2023/09/06 06:24:12;;;;;;;4.73;4.17;;;;;;;;;;4952467;28;20184;-76
2023/09/06 06:26:37;;;;;;;4.63;4.17;;;;;;;;;;4962840;28;20187;-76
2023/09/06 06:29:02;;;;;;;5.27;4.23;;;;;;;;;;4953851;28;20189;-76
2023/09/06 06:31:28;;;;;;;4.47;4.07;;;;;;;;;;4963062;28;20280;-76
2023/09/06 06:33:53;;;;;;;4.33;3.93;;;;;;;;;;4946786;28;20197;-76
2023/09/06 06:36:18;;;;;;;5.13;4.30;;;;;;;;;;4950229;28;20212;-76
2023/09/06 06:38:46;;;;;;;5.60;4.50;;;;;;;;;;4966206;28;20178;-76
2023/09/06 06:41:20;;;;;;;4.40;4.00;;;;;;;;;;4963234;28;20186;-76
2023/09/06 06:43:46;;;;;;;4.63;4.23;;;;;;;;;;4947742;28;20188;-76
2023/09/06 06:46:28;;;;;;;4.87;3.97;;;;;;;;;;4949475;28;20226;-76
2023/09/06 06:48:54;;;;;;;4.37;3.97;;;;;;;;;;4942344;28;20210;-76
2023/09/06 06:51:19;;;;;;;6.53;4.60;;;;;;;;;;4953355;28;20176;-76
2023/09/06 06:53:45;;;;;;;19.47;7.20;;;;;;;;;;4950458;28;20220;-76
2023/09/06 06:56:10;;;;;;;5.47;4.23;;;;;;;;;;4953293;28;20210;-76
2023/09/06 06:58:35;;;;;;;5.33;4.80;;;;;;;;;;4950609;28;20243;-76
2023/09/06 07:01:00;;;;;;;7.47;4.20;;;;;;;;;;4960420;28;20188;-76
2023/09/06 07:03:26;;;;;;;6.33;4.20;;;;;;;;;;4978820;28;20202;-76
2023/09/06 07:05:51;;;;;;;4.73;4.33;;;;;;;;;;4969049;28;20180;-76
2023/09/06 07:08:16;;;;;;;4.73;3.87;;;;;;;;;;4953716;28;20192;-76
2023/09/06 07:10:41;;;;;;;4.90;4.10;;;;;;;;;;4949389;28;20294;-76
2023/09/06 07:13:07;;;;;;;7.50;5.03;;;;;;;;;;4951023;28;20187;-76
2023/09/06 07:15:32;;;;;;;4.67;4.27;;;;;;;;;;4950755;28;20348;-77
2023/09/06 07:17:57;;;;;;;16.93;4.80;;;;;;;;;;4949509;28;20180;-76
2023/09/06 07:20:22;;;;;;;5.77;4.77;;;;;;;;;;4955350;28;20259;-76
2023/09/06 07:22:48;;;;;;;4.63;4.23;;;;;;;;;;4950240;28;20263;-76
2023/09/06 07:25:13;;;;;;;5.60;4.43;;;;;;;;;;4947911;28;20189;-76
2023/09/06 07:27:38;;;;;;;5.20;4.63;;;;;;;;;;4950289;28;20190;-76
2023/09/06 07:30:04;;;;;;;4.80;4.40;;;;;;;;;;4949909;28;20185;-76
2023/09/06 07:32:29;;;;;;;5.17;4.13;;;;;;;;;;4951138;28;20184;-77
2023/09/06 07:34:55;;;;;;;5.83;4.40;;;;;;;;;;4947510;28;20226;-76
2023/09/06 07:37:20;;;;;;;5.13;4.33;;;;;;;;;;4949242;28;20210;-77
2023/09/06 07:39:45;;;;;;;4.93;4.53;;;;;;;;;;4948381;28;20234;-76
2023/09/06 07:42:10;;;;;;;5.43;4.57;;;;;;;;;;4942315;28;20177;-76
2023/09/06 07:44:36;;;;;;;5.13;4.57;;;;;;;;;;4945758;28;20198;-77
2023/09/06 07:47:02;;;;;;;4.40;4.00;;;;;;;;;;4948858;28;20210;-76
2023/09/06 07:49:31;;;;;;;4.70;4.30;;;;;;;;;;4947641;28;20177;-76
2023/09/06 07:51:57;;;;;;;5.60;4.10;;;;;;;;;;4953483;28;20179;-76
2023/09/06 07:54:23;;;;;;;4.30;3.90;;;;;;;;;;4942492;28;20446;-76
2023/09/06 07:56:49;;;;;;;6.10;4.17;;;;;;;;;;4945020;28;20211;-77
2023/09/06 07:59:14;;;;;;;5.97;3.90;;;;;;;;;;4951692;28;20237;-76
2023/09/06 08:01:39;;;;;;;4.93;3.60;;;;;;;;;;4954328;28;20231;-76
2023/09/06 08:04:05;;;;;;;5.90;4.10;;;;;;;;;;4954190;28;20178;-76
2023/09/06 08:06:30;;;;;;;4.23;3.83;;;;;;;;;;4951584;28;20188;-76
2023/09/06 08:08:55;;;;;;;5.13;4.63;;;;;;;;;;4951172;28;20180;-76
2023/09/06 08:11:20;;;;;;;4.23;3.83;;;;;;;;;;4968835;28;20199;-76
2023/09/06 08:13:46;;;;;;;4.30;3.90;;;;;;;;;;4962659;28;20193;-76
2023/09/06 08:16:11;;;;;;;5.00;4.20;;;;;;;;;;4955055;28;20261;-76
2023/09/06 08:18:36;;;;;;;4.10;3.77;;;;;;;;;;4953723;28;20209;-77
2023/09/06 08:21:01;;;;;;;4.27;3.63;;;;;;;;;;4965938;28;20235;-76
2023/09/06 08:23:26;;;;;;;7.43;4.60;;;;;;;;;;4967742;28;20299;-76
2023/09/06 08:25:52;;;;;;;4.93;3.60;;;;;;;;;;4951581;28;20198;-76
2023/09/06 08:28:18;;;;;;;5.47;4.27;;;;;;;;;;4974356;28;20178;-76
2023/09/06 08:30:44;;;;;;;5.70;4.60;;;;;;;;;;4953620;28;20181;-76
2023/09/06 08:33:09;;;;;;;4.30;4.00;;;;;;;;;;4952239;28;20197;-76
2023/09/06 08:35:35;;;;;;;7.30;4.40;;;;;;;;;;4953140;28;20203;-76
2023/09/06 08:38:00;;;;;;;4.40;4.00;;;;;;;;;;4955838;28;20192;-76
2023/09/06 08:40:25;;;;;;;6.90;4.37;;;;;;;;;;4955076;28;20183;-76
2023/09/06 08:42:52;;;;;;;5.83;3.97;;;;;;;;;;4956295;28;20242;-76
2023/09/06 08:45:24;;;;;;;4.53;4.00;;;;;;;;;;4966514;28;20185;-76
2023/09/06 08:47:50;;;;;;;4.57;4.00;;;;;;;;;;4968575;28;20323;-76
2023/09/06 08:50:16;;;;;;;5.17;4.30;;;;;;;;;;4951096;28;20189;-76
2023/09/06 08:52:42;;;;;;;4.63;4.13;;;;;;;;;;4964878;28;20266;-77
2023/09/06 08:55:09;;;;;;;4.90;4.00;;;;;;;;;;4942367;28;20248;-76
2023/09/06 08:57:35;;;;;;;5.50;4.67;;;;;;;;;;4951228;28;20183;-77
2023/09/06 09:00:03;;;;;;;4.60;4.20;;;;;;;;;;4956807;28;20202;-76
2023/09/06 09:02:30;;;;;;;4.00;3.67;;;;;;;;;;5045889;23;20249;-74
2023/09/06 09:04:56;;;;;;;4.40;4.00;;;;;;;;;;4967141;28;20201;-74
2023/09/06 09:07:21;;;;;;;4.03;3.63;;;;;;;;;;4969446;28;20183;-75
2023/09/06 09:09:56;;;;;;;4.73;4.27;;;;;;;;;;4968422;28;20193;-74
2023/09/06 09:12:30;;;;;;;4.80;4.27;;;;;;;;;;4968820;28;20179;-74
2023/09/06 09:14:56;;;;;;;4.90;4.40;;;;;;;;;;4966191;28;20205;-74
2023/09/06 09:17:22;;;;;;;12.50;5.30;;;;;;;;;;4970906;28;20179;-75
2023/09/06 09:19:51;;;;;;;4.70;4.30;;;;;;;;;;4977216;28;20187;-75
2023/09/06 09:22:23;;;;;;;4.77;3.90;;;;;;;;;;4971866;28;20184;-74
2023/09/06 09:24:49;;;;;;;6.10;4.30;;;;;;;;;;4970339;28;20192;-74
2023/09/06 09:27:15;;;;;;;4.50;4.10;;;;;;;;;;4967650;28;20185;-74
2023/09/06 09:29:41;;;;;;;20.87;6.60;;;;;;;;;;4971208;28;20203;-75
2023/09/06 09:32:06;;;;;;;4.50;4.10;;;;;;;;;;4969446;28;20242;-75
2023/09/06 09:34:31;;;;;;;4.38;3.88;;;;;;;;;;4964701;28;20194;-74
2023/09/06 09:36:57;;;;;;;5.60;4.47;;;;;;;;;;4973317;28;20189;-75
2023/09/06 09:39:25;;;;;;;4.60;4.20;;;;;;;;;;4971088;28;20176;-74
2023/09/06 09:41:51;;;;;;;6.45;4.03;;;;;;;;;;4969993;28;20177;-75
2023/09/06 09:44:16;;;;;;;5.45;4.03;;;;;;;;;;4964210;28;20685;-74
2023/09/06 09:46:43;;;;;;;4.10;3.80;;;;;;;;;;4968439;28;20185;-75
2023/09/06 09:49:10;;;;;;;5.28;4.47;;;;;;;;;;4967921;28;20264;-75
2023/09/06 09:51:35;;;;;;;4.78;4.30;;;;;;;;;;4966038;28;20270;-75
2023/09/06 09:54:03;;;;;;;5.15;4.75;;;;;;;;;;4976903;28;20221;-74
2023/09/06 09:56:28;;;;;;;7.07;4.47;;;;;;;;;;4968254;28;20208;-75
2023/09/06 09:58:54;;;;;;;4.85;3.85;;;;;;;;;;4970069;28;20181;-75
2023/09/06 10:01:20;;;;;;;6.18;4.45;;;;;;;;;;4969869;28;20225;-74
2023/09/06 10:03:46;;;;;;;13.70;5.30;;;;;;;;;;4967550;28;20180;-75
2023/09/06 10:06:12;;;;;;;5.63;4.60;;;;;;;;;;4966114;28;20192;-75
2023/09/06 10:08:39;;;;;;;4.80;4.30;;;;;;;;;;4969264;28;20180;-75
2023/09/06 10:11:06;;;;;;;5.22;4.63;;;;;;;;;;4970819;28;20181;-74
2023/09/06 10:13:32;;;;;;;4.82;4.18;;;;;;;;;;4970412;28;20189;-74
2023/09/06 10:15:57;;;;;;;5.18;4.68;;;;;;;;;;4967300;28;20208;-75
2023/09/06 10:18:23;;;;;;;5.47;4.55;;;;;;;;;;4969714;28;20184;-75
2023/09/06 10:20:48;;;;;;;4.50;4.10;;;;;;;;;;4968191;28;20525;-75
2023/09/06 10:23:14;;;;;;;4.97;4.53;;;;;;;;;;4968732;28;20450;-75
2023/09/06 10:25:40;;;;;;;4.70;4.20;;;;;;;;;;4969694;28;20209;-74
2023/09/06 10:28:05;;;;;;;9.77;4.32;;;;;;;;;;4970876;28;20204;-74
2023/09/06 10:30:34;;;;;;;5.72;5.20;;;;;;;;;;4969229;28;20381;-74
2023/09/06 10:33:01;;;;;;;6.38;4.57;;;;;;;;;;4968218;28;20185;-75
2023/09/06 10:35:30;;;;;;;6.20;4.53;;;;;;;;;;4969354;28;20212;-71
2023/09/06 10:38:01;;;;;;;9.18;4.13;;;;;;;;;;4967738;28;20236;-75
2023/09/06 10:40:47;;;;;;;5.05;4.53;;;;;;;;;;4963692;28;20215;-75
2023/09/06 10:43:12;;;;;;;4.30;3.95;;;;;;;;;;4969745;28;20180;-75
2023/09/06 10:45:37;;;;;;;4.05;3.65;;;;;;;;;;4974984;28;20180;-75
2023/09/06 10:48:11;;;;;;;4.13;3.80;;;;;;;;;;4969186;28;20272;-74
2023/09/06 10:50:37;;;;;;;4.28;3.40;;;;;;;;;;4970372;28;20285;-75
2023/09/06 10:53:02;;;;;;;3.90;3.60;;;;;;;;;;4966216;28;20222;-75
2023/09/06 10:55:29;;;;;;;4.10;3.80;;;;;;;;;;4960650;28;20282;-74
2023/09/06 10:57:54;;;;;;;4.22;3.88;;;;;;;;;;4966085;28;20188;-75
2023/09/06 11:00:21;;;;;;;4.15;3.85;;;;;;;;;;4969018;28;20179;-75
2023/09/06 11:03:04;;;;;;;4.70;3.65;;;;;;;;;;4968010;28;20232;-74
2023/09/06 11:05:35;;;;;;;9.95;4.43;;;;;;;;;;4960736;28;20177;-75
2023/09/06 11:08:00;;;;;;;4.93;3.88;;;;;;;;;;4960654;28;20185;-74
2023/09/06 11:10:25;;;;;;;4.03;3.72;;;;;;;;;;4966596;28;20247;-75
2023/09/06 11:12:53;;;;;;;4.38;4.00;;;;;;;;;;4968087;28;20335;-75
2023/09/06 11:15:19;;;;;;;8.40;4.07;;;;;;;;;;4968108;28;20193;-75
2023/09/06 11:17:44;;;;;;;4.80;4.03;;;;;;;;;;4961103;28;20185;-75
2023/09/06 11:20:12;;;;;;;5.45;4.95;;;;;;;;;;4959988;28;20328;-75
2023/09/06 11:22:37;;;;;;;5.13;4.63;;;;;;;;;;4971908;28;20269;-75
2023/09/06 11:25:14;;;;;;;16.88;5.47;;;;;;;;;;4970917;28;20185;-75
2023/09/06 11:27:39;;;;;;;7.88;4.38;;;;;;;;;;4971747;28;20184;-75
2023/09/06 11:30:15;;;;;;;4.90;4.50;;;;;;;;;;4967238;28;20181;-75
2023/09/06 11:32:41;;;;;;;5.32;3.75;;;;;;;;;;4985406;28;20195;-75
2023/09/06 11:35:08;;;;;;;6.50;4.45;;;;;;;;;;4967810;28;20208;-75
2023/09/06 11:37:37;;;;;;;4.95;3.35;;;;;;;;;;4969024;28;20185;-75
2023/09/06 11:40:09;;;;;;;5.07;4.35;;;;;;;;;;4970407;28;20177;-74
2023/09/06 11:42:34;;;;;;;4.82;4.15;;;;;;;;;;4970735;28;20232;-75
2023/09/06 11:45:00;;;;;;;6.00;4.55;;;;;;;;;;4967443;28;20235;-75
2023/09/06 11:47:27;;;;;;;6.28;4.60;;;;;;;;;;4973930;28;20231;-74
2023/09/06 11:49:55;;;;;;;6.38;4.40;;;;;;;;;;4967879;28;20259;-75
2023/09/06 11:52:23;;;;;;;5.03;4.25;;;;;;;;;;4974958;28;20177;-75
2023/09/06 11:54:52;;;;;;;7.07;4.57;;;;;;;;;;4968034;28;20189;-74
2023/09/06 11:57:25;;;;;;;5.70;4.53;;;;;;;;;;4973886;28;20165;-74
2023/09/06 11:59:57;;;;;;;6.45;4.40;;;;;;;;;;4972656;28;20187;-75
2023/09/06 12:02:25;;;;;;;6.03;4.75;;;;;;;;;;4969101;28;20225;-74
2023/09/06 12:04:51;;;;;;;5.70;5.13;;;;;;;;;;4968344;28;20185;-75
2023/09/06 12:07:21;;;;;;;5.15;4.65;;;;;;;;;;4968378;28;20200;-75
2023/09/06 12:09:48;;;;;;;4.57;4.28;;;;;;;;;;4978290;28;20184;-75
2023/09/06 12:12:16;;;;;;;5.43;4.63;;;;;;;;;;4970996;28;20174;-75
2023/09/06 12:14:42;;;;;;;5.07;4.60;;;;;;;;;;4966326;28;20233;-74
2023/09/06 12:17:07;;;;;;;5.78;4.50;;;;;;;;;;4970883;28;20187;-75
2023/09/06 12:19:33;;;;;;;6.88;4.75;;;;;;;;;;4971829;28;20173;-75
2023/09/06 12:21:58;;;;;;;5.53;4.40;;;;;;;;;;4971556;28;20180;-75
2023/09/06 12:24:24;;;;;;;5.28;4.50;;;;;;;;;;4969492;28;20181;-75
2023/09/06 12:26:49;;;;;;;5.38;4.88;;;;;;;;;;4974737;28;20282;-75
2023/09/06 12:29:14;;;;;;;5.07;4.13;;;;;;;;;;4971597;28;20212;-75
2023/09/06 12:31:39;;;;;;;4.43;4.03;;;;;;;;;;4970539;28;20185;-75
2023/09/06 12:34:04;;;;;;;4.93;4.47;;;;;;;;;;4969246;28;20192;-75
2023/09/06 12:36:30;;;;;;;8.50;4.90;;;;;;;;;;4967840;28;20231;-74
2023/09/06 12:38:55;;;;;;;5.10;4.70;;;;;;;;;;4970574;28;20192;-75
2023/09/06 12:41:20;;;;;;;5.17;4.77;;;;;;;;;;4968231;28;20169;-74
2023/09/06 12:43:46;;;;;;;10.48;4.93;;;;;;;;;;4976090;28;20570;-74
2023/09/06 12:46:11;;;;;;;5.35;4.30;;;;;;;;;;4970586;28;20180;-75
2023/09/06 12:48:37;;;;;;;6.55;5.05;;;;;;;;;;4969512;28;20186;-75
2023/09/06 12:51:04;;;;;;;8.35;5.28;;;;;;;;;;4966731;28;20214;-80
2023/09/06 12:53:30;;;;;;;5.40;4.68;;;;;;;;;;4970919;28;20204;-73
2023/09/06 12:55:55;;;;;;;5.00;4.47;;;;;;;;;;4969636;28;20204;-73
2023/09/06 12:58:20;;;;;;;9.27;5.43;;;;;;;;;;4971307;28;20173;-73
2023/09/06 13:00:46;;;;;;;7.47;5.40;;;;;;;;;;4970996;28;20181;-73
2023/09/06 13:03:11;;;;;;;5.60;4.97;;;;;;;;;;4971204;28;20181;-73
2023/09/06 13:05:40;;;;;;;4.97;4.13;;;;;;;;;;4965991;28;20262;-73
2023/09/06 13:08:06;;;;;;;5.78;5.20;;;;;;;;;;4964834;28;20204;-73
2023/09/06 13:10:31;;;;;;;5.47;5.07;;;;;;;;;;4966930;28;20211;-72
2023/09/06 13:12:56;;;;;;;5.68;4.78;;;;;;;;;;4968191;28;20181;-73
2023/09/06 13:15:22;;;;;;;6.28;4.72;;;;;;;;;;4960767;28;20268;-73
2023/09/06 13:17:47;;;;;;;5.07;4.60;;;;;;;;;;4968725;28;20181;-73
2023/09/06 13:20:12;;;;;;;5.85;4.47;;;;;;;;;;4962903;28;20177;-73
2023/09/06 13:22:38;;;;;;;4.45;4.05;;;;;;;;;;4964841;28;20180;-72
2023/09/06 13:25:07;;;;;;;4.60;4.30;;;;;;;;;;4968260;28;20173;-73
2023/09/06 13:27:32;;;;;;;4.88;4.30;;;;;;;;;;4967135;28;20185;-73
2023/09/06 13:29:57;;;;;;;5.50;5.00;;;;;;;;;;4969468;28;20188;-74
2023/09/06 13:32:24;;;;;;;4.97;4.57;;;;;;;;;;4964672;28;20173;-73
2023/09/06 13:34:51;;;;;;;5.50;5.00;;;;;;;;;;4970728;28;20423;-73
2023/09/06 13:37:16;;;;;;;4.80;4.15;;;;;;;;;;4969755;28;20305;-73
2023/09/06 13:39:42;;;;;;;5.43;4.50;;;;;;;;;;4967727;28;20271;-73
2023/09/06 13:42:08;;;;;;;5.85;4.78;;;;;;;;;;4968066;28;20177;-73
2023/09/06 13:44:33;;;;;;;4.97;4.57;;;;;;;;;;4969171;28;20268;-74
2023/09/06 13:46:58;;;;;;;5.05;4.65;;;;;;;;;;4967648;28;20422;-73
2023/09/06 13:49:24;;;;;;;4.65;4.25;;;;;;;;;;4972460;28;20216;-73
2023/09/06 13:51:49;;;;;;;5.25;4.40;;;;;;;;;;4971207;28;20184;-73
2023/09/06 13:54:14;;;;;;;4.90;4.40;;;;;;;;;;4962657;28;20190;-72
2023/09/06 13:56:41;;;;;;;5.47;4.83;;;;;;;;;;4971094;28;20527;-72
2023/09/06 13:59:07;;;;;;;11.57;5.00;;;;;;;;;;4966331;28;20423;-73
2023/09/06 14:01:32;;;;;;;6.35;4.38;;;;;;;;;;4968287;28;20287;-73
2023/09/06 14:03:57;;;;;;;5.18;4.75;;;;;;;;;;4965196;28;20188;-73
2023/09/06 14:06:22;;;;;;;5.38;4.65;;;;;;;;;;4969092;28;20227;-73
2023/09/06 14:08:48;;;;;;;5.67;4.67;;;;;;;;;;4968909;28;20267;-72
2023/09/06 14:11:14;;;;;;;5.00;4.35;;;;;;;;;;4966834;28;20445;-73
2023/09/06 14:13:39;;;;;;;4.68;4.13;;;;;;;;;;4968093;28;20365;-73
2023/09/06 14:16:06;;;;;;;8.38;4.70;;;;;;;;;;4969481;28;20258;-72
2023/09/06 14:18:31;;;;;;;4.93;4.28;;;;;;;;;;4971422;28;20173;-72
2023/09/06 14:20:57;;;;;;;5.85;4.57;;;;;;;;;;4968352;28;20181;-73
2023/09/06 14:23:22;;;;;;;4.60;4.20;;;;;;;;;;4966645;28;20201;-73
2023/09/06 14:25:47;;;;;;;6.10;4.70;;;;;;;;;;4964465;28;20204;-72
2023/09/06 14:28:13;;;;;;;4.88;4.47;;;;;;;;;;4968711;28;20445;-73
2023/09/06 14:30:39;;;;;;;5.60;4.82;;;;;;;;;;4964328;28;20185;-73
2023/09/06 14:33:05;;;;;;;4.82;4.40;;;;;;;;;;4967596;28;20235;-73
2023/09/06 14:35:30;;;;;;;4.80;4.22;;;;;;;;;;4969546;28;20228;-74
2023/09/06 14:37:56;;;;;;;6.63;3.97;;;;;;;;;;4969428;28;20212;-74